KBOI

Boise Air Terminal/Gowen Field Airport

Boise, Idaho, USA
METAR KBOI 172053Z 01005KT 10SM OVC060 03/M06 A3023 RMK AO2 SLP260 T00281061 56016
Observed Flight Rules
Dec-17 @ 20:53 UTC (20 minutes ago) Visual Flight Rules
Wind Visibility Clouds
10° at 5 knots 10 miles
  • Overcast at 6,000' AGL
Temperatures Readings
Current 3°C / 37°F
Dewpoint -6°C / 21°F
Humidity 52%
Altimeter 30.23" Hg
Pressure 1026 hPa
Elevation 875
METAR KBOI 172053Z 01005KT 10SM OVC060 03/M06 A3023 RMK AO2 SLP260 T00281061 56016
Observed Flight Rules
Dec-17 @ 20:53 UTC
(20 minutes ago)
VFR
Wind Visibility
10° at 5 knots 10 miles
Clouds
  • Overcast at 6,000' AGL
Temperature Dewpoint
3°C / 37°F -6°C / 21°F
Humidity Altimeter Pressure
52% 30.23" Hg 1026 hPa